TFM - Tactical Decision Aid (Experimental) INFO Settings
ID: Runway Winds: CIG/VIS Threshold: METAR Board: Map:

KGWO - Greenwood-Leflore

Updated at: 1015 UTC 14 Dec 2017
Latest TAF at: 0520 UTC 14 Dec 2017

TAF Board

Time0953Z14/11Z14/12Z14/13Z14/14Z14/15Z14/16Z14/17Z14/18Z14/19Z14/20Z14/21Z14/22Z14/23Z
TypeOBSPRVLPRVLPRVLPRVLPRVLPRVLPRVLPRVLPRVLPRVLPRVLPRVLPRVL
VIS10>6>6>6>6>6>6>6>6>6>6>6>6>6
CIG----------------------------
CoverCLRSKCSKCSKCSKCSKCSKCSKCSKCSKCSKCSKCSKCSKC
FltCatVFRVFRVFRVFRVFRVFRVFRVFRVFRVFRVFRVFRVFRVFR
WX----------------------------
WDir180200202020202020202020202020
WSpd310333333333333
WGst----------------------------
TAF
KGWO 140520Z 1406/1506 20010KT P6SM SKC
  FM141200 02003KT P6SM SKC


METAR Board

Time13/23Z 14/00Z 14/01Z 14/02Z 14/03Z 14/04Z 14/05Z 14/06Z 14/07Z 14/08Z 14/09Z 14/10Z
VIS10 10 10 10 10 10 10 10 9 10 10 10
CIG-- -- -- -- -- -- -- -- -- -- -- --
CoverCLRCLRCLRCLRCLRCLRCLRCLRCLRCLRCLRCLR
FltCatVFRVFRVFRVFRVFRVFRVFRVFRVFRVFRVFRVFR
WX------------------------
WDir200210210210220210210210210190180180
WSpd10 9 9 8 7 6 6 6 4 4 6 3
WGst-- -- -- -- -- -- -- -- -- -- -- --
METAR
KGWO 132253Z AUTO 20010KT 10SM CLR 12/M02 A2987 RMK AO2 SLP116 T01171022
KGWO 132353Z AUTO 21009KT 10SM CLR 10/M02 A2988 RMK AO2 SLP118 T01001017 10156 20100 55005
KGWO 140053Z AUTO 21009KT 10SM CLR 09/M02 A2989 RMK AO2 SLP122 T00941017
KGWO 140153Z AUTO 21008KT 10SM CLR 08/M01 A2989 RMK AO2 SLP121 T00781011
KGWO 140253Z AUTO 22007KT 10SM CLR 08/M02 A2990 RMK AO2 SLP125 T00781017 53007
KGWO 140353Z AUTO 21006KT 10SM CLR 06/M02 A2991 RMK AO2 SLP129 T00561017
KGWO 140453Z AUTO 21006KT 10SM CLR 06/M01 A2992 RMK AO2 SLP132 T00561011
KGWO 140553Z AUTO 21006KT 10SM CLR 05/M01 A2991 RMK AO2 SLP129 T00501011 10106 20050 401561039 50005
KGWO 140653Z AUTO 21004KT 9SM CLR 04/M01 A2992 RMK AO2 SLP130 T00441011
KGWO 140753Z AUTO 19004KT 10SM CLR 03/M01 A2992 RMK AO2 SLP130 T00331011
KGWO 140853Z AUTO 18006KT 10SM CLR 03/M01 A2992 RMK AO2 SLP131 T00281011 53002
KGWO 140953Z AUTO 18003KT 10SM CLR 02/M01 A2991 RMK AO2 SLP128 T00171011

TAF/METAR Board Legend

Potential Impact
  None Marginal Slight Moderate High
Visibility (sm) >5 3≤X≤5 2≤X<3 0.5≤X<2 <0.5
Ceiling (100 ft) >30 10≤X≤30 6≤X<10 2≤X<6 <2
Wind Speed (kt) <10 10≤X<20 20≤X<30 ≥30
Wind Gust (kt) <15 15≤X<25 25≤X<35 ≥35
Weather No Wx Reported VCTS -TS,-FZRA TS,FZRA +TS,+FZRA